createdAt,value
2023-03-30T00:09:09.132Z,12.2
2023-03-30T00:10:22.042Z,12.2
2023-03-30T00:12:47.840Z,12.2
2023-03-30T00:14:00.647Z,12.2
2023-03-30T00:15:14.337Z,12.2
2023-03-30T00:20:06.133Z,12.4
2023-03-30T00:24:57.829Z,12.4
2023-03-30T00:33:41.891Z,12.4
2023-03-30T00:35:54.959Z,12.4
2023-03-30T00:38:21.278Z,12.2
2023-03-30T00:43:13.410Z,12.3
2023-03-30T00:50:30.751Z,12.2
2023-03-30T00:51:44.043Z,12.2
2023-03-30T00:52:56.679Z,12.2
2023-03-30T00:59:01.926Z,12.2
2023-03-30T01:00:14.666Z,12.3
2023-03-30T01:01:27.670Z,12.3
2023-03-30T01:03:53.820Z,12.2
2023-03-30T01:05:07.018Z,12.2
2023-03-30T01:12:24.616Z,12.4
2023-03-30T01:13:38.141Z,12.4
2023-03-30T01:16:04.265Z,12.4
2023-03-30T01:17:17.503Z,12.4
2023-03-30T01:18:29.625Z,12.5
2023-03-30T01:22:09.046Z,12.6
2023-03-30T01:25:48.210Z,12.5
2023-03-30T01:28:14.253Z,12.7
2023-03-30T01:29:26.885Z,12.7
2023-03-30T01:30:39.849Z,12.7
2023-03-30T01:34:18.770Z,12.7
2023-03-30T01:37:57.775Z,12.7
2023-03-30T01:40:23.930Z,12.7
2023-03-30T01:44:02.846Z,12.8
2023-03-30T01:53:47.171Z,13
2023-03-30T01:54:59.913Z,12.9
2023-03-30T01:58:38.735Z,12.9
2023-03-30T02:04:44.177Z,13.1
2023-03-30T02:08:23.247Z,13.1
2023-03-30T02:10:48.977Z,13.2
2023-03-30T02:12:01.909Z,13.2
2023-03-30T02:14:28.105Z,13.2
2023-03-30T02:18:07.028Z,13.2
2023-03-30T02:19:19.750Z,13.2
2023-03-30T02:20:32.767Z,13.2
2023-03-30T02:24:11.728Z,13.3
2023-03-30T02:26:37.581Z,13.3
2023-03-30T02:31:29.653Z,13.3
2023-03-30T02:33:56.200Z,13.2
2023-03-30T02:35:08.708Z,13.2
2023-03-30T02:36:22.180Z,13.1
2023-03-30T02:37:34.624Z,13.1
2023-03-30T02:41:13.835Z,13.1
2023-03-30T02:44:52.721Z,13.2
2023-03-30T02:47:18.797Z,13.2
2023-03-30T02:48:32.160Z,13.2
2023-03-30T02:50:57.654Z,13.1
2023-03-30T02:54:36.950Z,13.1
2023-03-30T02:58:15.925Z,13.1
2023-03-30T02:59:28.876Z,13.1
2023-03-30T03:03:07.724Z,13.1
2023-03-30T03:04:21.560Z,13.1
2023-03-30T03:05:33.758Z,13.2
2023-03-30T03:06:47.298Z,13.2
2023-03-30T03:11:38.918Z,13.2
2023-03-30T03:15:17.977Z,13.2
2023-03-30T03:17:43.661Z,13.3
2023-03-30T03:20:09.728Z,13.3
2023-03-30T03:27:28.589Z,13.3
2023-03-30T03:29:53.684Z,13.3
2023-03-30T03:31:07.136Z,13.3
2023-03-30T03:33:32.919Z,13.3
2023-03-30T03:34:46.293Z,13.3
2023-03-30T03:35:58.751Z,13.3
2023-03-30T03:37:11.926Z,13.3
2023-03-30T03:39:38.230Z,13.3
2023-03-30T03:44:29.877Z,13.5
2023-03-30T03:45:42.934Z,13.5
2023-03-30T03:50:34.902Z,13.5
2023-03-30T03:54:14.641Z,13.3
2023-03-30T03:55:26.931Z,13.3
2023-03-30T03:59:05.951Z,13.5
2023-03-30T04:02:44.693Z,13.5
2023-03-30T04:03:57.811Z,13.5
2023-03-30T04:05:11.690Z,13.5
2023-03-30T04:08:49.763Z,13.5
2023-03-30T04:12:28.711Z,13.5
2023-03-30T04:20:59.775Z,13.5
2023-03-30T04:23:25.918Z,13.5
2023-03-30T04:24:39.012Z,13.5
2023-03-30T04:29:31.314Z,13.6
2023-03-30T04:30:43.688Z,13.6
2023-03-30T04:31:56.972Z,13.6
2023-03-30T04:33:09.729Z,13.5
2023-03-30T04:36:48.955Z,13.5
2023-03-30T04:39:14.640Z,13.5
2023-03-30T04:41:41.819Z,13.6
2023-03-30T04:46:32.635Z,13.6
2023-03-30T04:47:45.730Z,13.6
2023-03-30T04:50:11.973Z,13.6
2023-03-30T04:51:25.048Z,13.6
2023-03-30T04:52:37.968Z,13.6
2023-03-30T04:53:50.804Z,13.6
2023-03-30T05:01:08.755Z,13.8
2023-03-30T05:07:13.649Z,13.8
2023-03-30T05:19:23.834Z,13.9
2023-03-30T05:20:36.725Z,14
2023-03-30T05:26:41.971Z,14
2023-03-30T05:30:20.832Z,14
2023-03-30T05:38:51.677Z,14
2023-03-30T05:40:04.728Z,14
2023-03-30T05:48:36.147Z,14
2023-03-30T05:55:53.790Z,14
2023-03-30T05:57:07.142Z,14
2023-03-30T06:12:56.470Z,14
2023-03-30T06:20:13.974Z,14
2023-03-30T06:21:26.983Z,14
2023-03-30T06:22:39.912Z,14
2023-03-30T06:23:52.623Z,14
2023-03-30T06:25:05.938Z,14
2023-03-30T06:26:18.926Z,14
2023-03-30T06:27:31.890Z,14
2023-03-30T06:28:44.923Z,14
2023-03-30T06:29:57.906Z,14
2023-03-30T06:31:10.935Z,14
2023-03-30T06:32:23.983Z,14
2023-03-30T06:33:37.592Z,14
2023-03-30T06:34:49.944Z,14
2023-03-30T06:36:02.963Z,14
2023-03-30T06:37:15.959Z,14
2023-03-30T06:38:29.223Z,14.2
2023-03-30T06:39:41.983Z,14.2
2023-03-30T06:40:54.967Z,14.2
2023-03-30T06:42:07.941Z,14.1
2023-03-30T06:43:20.985Z,14.3
2023-03-30T06:44:33.911Z,14.3
2023-03-30T06:45:47.092Z,14.3
2023-03-30T06:47:00.020Z,14.3
2023-03-30T06:48:12.925Z,14.3
2023-03-30T06:49:25.969Z,14.3
2023-03-30T06:50:38.797Z,14.3
2023-03-30T06:51:51.925Z,14.3
2023-03-30T06:53:04.949Z,14.3
2023-03-30T06:54:17.960Z,14.3
2023-03-30T06:55:31.131Z,14.3
2023-03-30T06:56:43.936Z,14.3
2023-03-30T06:57:56.924Z,14.3
2023-03-30T06:59:09.947Z,14.3
2023-03-30T07:00:22.963Z,14.4
2023-03-30T07:01:36.191Z,14.4
2023-03-30T07:02:48.995Z,14.4
2023-03-30T07:04:02.192Z,14.4
2023-03-30T07:05:14.961Z,14.4
2023-03-30T07:06:27.949Z,14.4
2023-03-30T07:07:40.756Z,14.4
2023-03-30T07:11:19.805Z,14.4
2023-03-30T07:21:03.969Z,14.4
2023-03-30T07:23:29.808Z,14.4
2023-03-30T07:24:43.448Z,14.4
2023-03-30T07:28:21.894Z,14.4
2023-03-30T07:29:34.702Z,14.4
2023-03-30T07:32:01.975Z,14.4
2023-03-30T07:33:13.852Z,14.4
2023-03-30T07:34:26.808Z,14.3
2023-03-30T07:38:05.752Z,14.3
2023-03-30T07:39:18.704Z,14.3
2023-03-30T07:46:36.948Z,14.3
2023-03-30T07:47:49.746Z,14.3
2023-03-30T07:50:15.939Z,14.3
2023-03-30T07:51:28.836Z,14.3
2023-03-30T07:53:54.941Z,14.3
2023-03-30T07:55:08.345Z,14.1
2023-03-30T07:56:21.293Z,14.1
2023-03-30T08:15:48.990Z,12.2
2023-03-30T08:17:01.985Z,12.2
2023-03-30T08:18:15.080Z,12
2023-03-30T08:19:27.966Z,12
2023-03-30T08:20:40.947Z,11.9
2023-03-30T08:21:53.987Z,11.9
2023-03-30T08:23:06.664Z,11.8
2023-03-30T08:24:20.031Z,11.7
2023-03-30T08:25:33.205Z,11.7
2023-03-30T08:26:46.056Z,11.7
2023-03-30T08:27:58.969Z,11.7
2023-03-30T08:29:11.971Z,11.7
2023-03-30T08:30:24.981Z,11.7
2023-03-30T08:31:38.187Z,11.8
2023-03-30T08:32:51.135Z,11.9
2023-03-30T08:34:04.191Z,11.9
2023-03-30T08:35:17.158Z,11.9
2023-03-30T08:36:30.002Z,11.9
2023-03-30T08:37:42.859Z,11.9
2023-03-30T08:38:56.020Z,11.9
2023-03-30T08:40:08.846Z,12
2023-03-30T08:41:22.008Z,12
2023-03-30T08:43:47.771Z,12.2
2023-03-30T08:45:00.719Z,12.2
2023-03-30T08:46:14.067Z,12.3
2023-03-30T08:47:27.098Z,12.2
2023-03-30T08:48:40.048Z,12.4
2023-03-30T08:49:52.994Z,12.4
2023-03-30T08:51:06.196Z,12.4
2023-03-30T08:52:19.035Z,12.4
2023-03-30T08:53:32.644Z,12.6
2023-03-30T08:54:44.860Z,12.6
2023-03-30T08:55:57.987Z,12.6
2023-03-30T08:57:10.976Z,12.7
2023-03-30T08:58:25.046Z,12.8
2023-03-30T08:59:37.009Z,13
2023-03-30T09:00:49.982Z,13.2
2023-03-30T09:02:02.995Z,13.3
2023-03-30T09:03:16.152Z,13.5
2023-03-30T09:04:29.019Z,13.5
2023-03-30T09:05:42.133Z,13.8
2023-03-30T09:06:54.975Z,14
2023-03-30T09:08:07.976Z,14.2
2023-03-30T09:09:21.002Z,14.3
2023-03-30T09:10:33.857Z,14.4
2023-03-30T09:11:46.776Z,14.4
2023-03-30T09:17:51.856Z,14.6
2023-03-30T09:23:56.997Z,14.4
2023-03-30T09:25:10.124Z,14.2
2023-03-30T09:26:23.150Z,14
2023-03-30T09:27:35.979Z,13.7
2023-03-30T09:28:48.989Z,13.6
2023-03-30T09:30:01.981Z,13.4
2023-03-30T09:31:15.066Z,13.2
2023-03-30T09:32:28.101Z,13.1
2023-03-30T09:33:41.020Z,12.8
2023-03-30T09:34:54.028Z,12.8
2023-03-30T09:36:07.190Z,12.7
2023-03-30T09:37:20.027Z,12.7
2023-03-30T09:38:33.019Z,12.5
2023-03-30T09:39:45.974Z,12.5
2023-03-30T09:40:59.188Z,12.5
2023-03-30T09:42:11.728Z,12.6
2023-03-30T09:43:25.007Z,12.6
2023-03-30T09:44:38.045Z,12.6
2023-03-30T09:45:51.002Z,12.6
2023-03-30T09:47:03.822Z,12.6
2023-03-30T09:48:17.031Z,12.4
2023-03-30T09:49:30.042Z,12.4
2023-03-30T09:50:43.046Z,12.4
2023-03-30T09:51:55.990Z,12.4
2023-03-30T09:53:08.984Z,12.4
2023-03-30T09:54:22.085Z,12.2
2023-03-30T09:55:35.027Z,12.2
2023-03-30T09:56:48.238Z,12.2
2023-03-30T09:58:01.003Z,12.3
2023-03-30T09:59:14.045Z,12.2
2023-03-30T10:00:27.163Z,12.2
2023-03-30T10:01:39.867Z,12.2
2023-03-30T10:02:53.033Z,12.2
2023-03-30T10:04:06.152Z,12.2
2023-03-30T10:05:19.048Z,12.2
2023-03-30T10:06:32.080Z,12.1
2023-03-30T10:07:45.028Z,12
2023-03-30T10:08:58.009Z,12
2023-03-30T10:10:11.014Z,12
2023-03-30T10:11:24.048Z,12
2023-03-30T10:12:37.046Z,12
2023-03-30T10:13:50.015Z,12
2023-03-30T10:15:03.054Z,12
2023-03-30T10:16:16.020Z,12
2023-03-30T10:17:29.043Z,12
2023-03-30T10:18:42.018Z,12.2
2023-03-30T10:20:00.575Z,12.2
2023-03-30T10:21:08.147Z,12.2
2023-03-30T10:22:20.897Z,12.2
2023-03-30T10:23:33.847Z,12.2
2023-03-30T10:24:47.033Z,12.2
2023-03-30T10:26:00.032Z,12.2
2023-03-30T10:27:12.972Z,12.2
2023-03-30T10:28:25.831Z,12.2
2023-03-30T10:29:39.048Z,12.2
2023-03-30T10:30:51.952Z,12.2
2023-03-30T10:33:18.903Z,12.4
2023-03-30T10:34:30.892Z,12.4
2023-03-30T10:35:44.015Z,12.4
2023-03-30T10:36:56.905Z,12.6
2023-03-30T10:38:09.757Z,12.5
2023-03-30T10:39:23.020Z,12.5
2023-03-30T10:40:36.032Z,12.7
2023-03-30T10:41:48.693Z,12.7
2023-03-30T10:45:27.797Z,12.8
2023-03-30T10:46:40.749Z,12.8
2023-03-30T10:49:06.979Z,12.8
2023-03-30T10:51:32.848Z,12.8
2023-03-30T10:55:11.792Z,12.9
2023-03-30T10:57:37.824Z,12.9
2023-03-30T10:58:50.825Z,13
2023-03-30T11:00:04.016Z,13.1
2023-03-30T11:02:30.063Z,13.1
2023-03-30T11:07:21.790Z,13.3
2023-03-30T11:08:35.022Z,13.5
2023-03-30T11:11:01.403Z,13.5
2023-03-30T11:23:10.914Z,14.1
2023-03-30T11:26:49.903Z,14.4
2023-03-30T11:31:43.062Z,14.7
2023-03-30T11:32:54.959Z,14.8
2023-03-30T12:10:37.928Z,15.6
2023-03-30T12:34:57.758Z,15.4
2023-03-30T12:45:55.904Z,15.3
2023-03-30T12:49:35.450Z,15.1
2023-03-30T12:51:59.838Z,14.9
2023-03-30T13:41:52.770Z,15.5
2023-03-30T13:49:10.862Z,15.5
2023-03-30T14:01:20.863Z,15.6
2023-03-30T14:42:42.709Z,14.7
2023-03-30T15:13:09.389Z,14.7
2023-03-30T15:14:20.907Z,14.7
2023-03-30T15:17:59.713Z,14.7
2023-03-30T15:19:12.810Z,14.7
2023-03-30T15:28:56.867Z,14.7
2023-03-30T15:35:02.001Z,14.6
2023-03-30T15:36:15.072Z,14.5
2023-03-30T15:37:28.007Z,14.4
2023-03-30T15:38:41.027Z,14.3
2023-03-30T15:39:54.001Z,14.3
2023-03-30T15:41:07.084Z,14.1
2023-03-30T15:42:20.068Z,14.1
2023-03-30T15:43:33.031Z,14.1
2023-03-30T15:44:46.458Z,14.1
2023-03-30T15:45:59.026Z,14
2023-03-30T15:47:13.826Z,13.8
2023-03-30T15:48:24.946Z,13.8
2023-03-30T15:49:38.054Z,13.8
2023-03-30T15:50:51.023Z,13.8
2023-03-30T15:52:04.009Z,13.7
2023-03-30T15:53:16.882Z,13.8
2023-03-30T15:54:30.053Z,13.8
2023-03-30T15:55:43.047Z,13.6
2023-03-30T15:56:55.933Z,13.6
2023-03-30T15:58:09.045Z,13.6
2023-03-30T15:59:22.232Z,13.6
2023-03-30T16:00:35.244Z,13.7
2023-03-30T16:01:48.066Z,13.8
2023-03-30T16:03:01.218Z,13.8
2023-03-30T16:04:14.049Z,13.8
2023-03-30T16:05:26.986Z,13.7
2023-03-30T16:06:42.308Z,13.6
2023-03-30T16:07:52.888Z,13.6
2023-03-30T16:09:06.032Z,13.6
2023-03-30T16:10:19.108Z,13.6
2023-03-30T16:11:32.015Z,13.6
2023-03-30T16:12:45.061Z,13.6
2023-03-30T16:13:58.386Z,13.6
2023-03-30T16:15:11.017Z,13.6
2023-03-30T16:16:24.087Z,13.6
2023-03-30T16:17:37.094Z,13.6
2023-03-30T16:18:50.062Z,13.6
2023-03-30T16:20:04.897Z,13.6
2023-03-30T16:21:16.614Z,13.6
2023-03-30T16:22:29.036Z,13.6
2023-03-30T16:23:42.050Z,13.6
2023-03-30T16:24:55.050Z,13.6
2023-03-30T16:26:08.077Z,13.6
2023-03-30T16:27:21.096Z,13.6
2023-03-30T16:28:34.100Z,13.6
2023-03-30T16:29:47.045Z,13.6
2023-03-30T16:31:00.057Z,13.6
2023-03-30T16:32:13.056Z,13.4
2023-03-30T16:33:26.137Z,13.5
2023-03-30T16:34:40.431Z,13.5
2023-03-30T16:35:52.134Z,13.5
2023-03-30T16:37:05.038Z,13.3
2023-03-30T16:38:18.032Z,13.3
2023-03-30T16:39:31.054Z,13.3
2023-03-30T16:40:44.162Z,13.3
2023-03-30T16:41:57.026Z,13.3
2023-03-30T16:43:10.030Z,13.2
2023-03-30T16:45:36.127Z,13.2
2023-03-30T16:46:48.992Z,13.2
2023-03-30T16:48:02.262Z,13.2
2023-03-30T16:49:15.200Z,13.2
2023-03-30T16:50:28.126Z,13.2
2023-03-30T16:51:41.033Z,13.3
2023-03-30T16:52:54.042Z,13.3
2023-03-30T16:54:11.484Z,13.3
2023-03-30T16:55:20.069Z,13.3
2023-03-30T16:56:33.009Z,13.3
2023-03-30T16:57:46.060Z,13.3
2023-03-30T16:58:59.097Z,13.3
2023-03-30T17:00:12.037Z,13.3
2023-03-30T17:01:25.163Z,13.2
2023-03-30T17:02:38.125Z,13.2
2023-03-30T17:03:51.257Z,13.1
2023-03-30T17:05:04.072Z,13.1
2023-03-30T17:06:17.135Z,12.9
2023-03-30T17:07:30.150Z,12.9
2023-03-30T17:08:43.177Z,12.9
2023-03-30T17:09:56.099Z,12.9
2023-03-30T17:11:09.233Z,12.8
2023-03-30T17:12:22.084Z,12.8
2023-03-30T17:13:35.038Z,12.8
2023-03-30T17:14:47.964Z,12.7
2023-03-30T17:16:01.255Z,12.7
2023-03-30T17:17:14.192Z,12.7
2023-03-30T17:18:27.017Z,12.7
2023-03-30T17:19:39.715Z,12.7
2023-03-30T17:20:53.179Z,12.7
2023-03-30T17:22:06.011Z,12.7
2023-03-30T17:23:19.018Z,12.7
2023-03-30T17:24:32.019Z,12.7
2023-03-30T17:25:46.339Z,12.7
2023-03-30T17:26:58.115Z,12.7
2023-03-30T17:28:10.990Z,12.7
2023-03-30T17:29:24.028Z,12.7
2023-03-30T17:30:37.045Z,12.7
2023-03-30T17:31:50.052Z,12.7
2023-03-30T17:33:03.074Z,12.7
2023-03-30T17:34:16.037Z,12.7
2023-03-30T17:35:29.018Z,12.7
2023-03-30T17:36:42.037Z,12.7
2023-03-30T17:37:55.011Z,12.7
2023-03-30T17:39:08.113Z,12.7
2023-03-30T17:40:20.866Z,12.7
2023-03-30T17:41:34.589Z,12.7
2023-03-30T17:42:46.903Z,12.7
2023-03-30T17:44:00.068Z,12.7
2023-03-30T17:45:13.064Z,12.7
2023-03-30T17:46:26.103Z,12.7
2023-03-30T17:47:39.174Z,12.7
2023-03-30T17:48:51.984Z,12.7
2023-03-30T17:50:04.978Z,12.7
2023-03-30T17:51:17.974Z,12.7
2023-03-30T17:52:31.008Z,12.7
2023-03-30T17:53:43.896Z,12.7
2023-03-30T17:54:56.971Z,12.7
2023-03-30T17:56:10.016Z,12.7
2023-03-30T17:57:23.090Z,12.7
2023-03-30T17:58:36.055Z,12.6
2023-03-30T17:59:49.140Z,12.5
2023-03-30T18:01:02.216Z,12.6
2023-03-30T18:02:15.195Z,12.6
2023-03-30T18:03:28.079Z,12.6
2023-03-30T18:04:41.001Z,12.6
2023-03-30T18:05:54.208Z,12.5
2023-03-30T18:07:07.032Z,12.4
2023-03-30T18:08:20.115Z,12.4
2023-03-30T18:09:33.040Z,12.4
2023-03-30T18:10:45.999Z,12.4
2023-03-30T18:11:59.031Z,12.4
2023-03-30T18:13:12.044Z,12.4
2023-03-30T18:14:25.025Z,12.4
2023-03-30T18:15:38.009Z,12.4
2023-03-30T18:16:51.205Z,12.4
2023-03-30T18:18:04.250Z,12.3
2023-03-30T18:19:16.717Z,12.2
2023-03-30T18:20:30.131Z,12.2
2023-03-30T18:21:43.022Z,12.3
2023-03-30T18:22:56.024Z,12.2
2023-03-30T18:24:09.053Z,12.2
2023-03-30T18:25:31.865Z,12.2
2023-03-30T18:26:35.035Z,12.2
2023-03-30T18:27:48.189Z,12.2
2023-03-30T18:29:01.102Z,12.2
2023-03-30T18:30:14.035Z,12.2
2023-03-30T18:31:26.922Z,12.2
2023-03-30T18:32:47.240Z,12.2
2023-03-30T18:33:53.689Z,12.2
2023-03-30T18:35:06.034Z,12.2
2023-03-30T18:36:18.673Z,12.2
2023-03-30T18:37:31.678Z,12.2
2023-03-30T18:38:44.677Z,12.2
2023-03-30T18:39:57.717Z,12.2
2023-03-30T18:41:10.545Z,12.2
2023-03-30T18:42:23.683Z,12.2
2023-03-30T18:43:36.821Z,12.2
2023-03-30T18:44:50.302Z,12.2
2023-03-30T18:46:02.859Z,12.2
2023-03-30T18:47:16.063Z,12.2
2023-03-30T18:48:28.720Z,12.2
2023-03-30T18:49:41.678Z,12.2
2023-03-30T18:50:54.536Z,12
2023-03-30T18:52:07.692Z,12
2023-03-30T18:53:20.735Z,12
2023-03-30T18:54:33.685Z,12
2023-03-30T18:55:46.664Z,12
2023-03-30T18:56:59.684Z,12
2023-03-30T18:58:12.697Z,11.9
2023-03-30T18:59:25.666Z,11.9
2023-03-30T19:00:38.707Z,11.9
2023-03-30T19:01:51.779Z,11.9
2023-03-30T19:03:04.753Z,11.9
2023-03-30T19:04:17.638Z,11.9
2023-03-30T19:05:30.704Z,11.7
2023-03-30T19:06:43.638Z,11.7
2023-03-30T19:07:56.722Z,11.7
2023-03-30T19:09:09.620Z,11.7
2023-03-30T19:10:22.685Z,11.6
2023-03-30T19:11:35.540Z,11.7
2023-03-30T19:12:48.434Z,11.7
2023-03-30T19:14:01.600Z,11.7
2023-03-30T19:15:14.529Z,11.7
2023-03-30T19:16:27.584Z,11.7
2023-03-30T19:17:40.551Z,11.7
2023-03-30T19:18:53.710Z,11.7
2023-03-30T19:20:06.696Z,11.7
2023-03-30T19:21:19.704Z,11.7
2023-03-30T19:22:32.877Z,11.7
2023-03-30T19:23:45.516Z,11.7
2023-03-30T19:24:58.777Z,11.7
2023-03-30T19:26:11.567Z,11.7
2023-03-30T19:27:24.694Z,11.7
2023-03-30T19:28:37.698Z,11.7
2023-03-30T19:29:50.577Z,11.7
2023-03-30T19:31:03.855Z,11.7
2023-03-30T19:32:16.700Z,11.9
2023-03-30T19:33:29.600Z,11.9
2023-03-30T19:34:42.686Z,11.9
2023-03-30T19:35:55.731Z,11.9
2023-03-30T19:37:08.715Z,11.9
2023-03-30T19:38:21.843Z,11.9
2023-03-30T19:39:34.712Z,11.9
2023-03-30T19:40:47.695Z,11.9
2023-03-30T19:42:00.676Z,11.9
2023-03-30T19:43:13.561Z,11.9
2023-03-30T19:44:26.573Z,11.9
2023-03-30T19:45:39.635Z,11.9
2023-03-30T19:46:52.826Z,11.9
2023-03-30T19:48:05.627Z,11.9
2023-03-30T19:49:18.720Z,11.9
2023-03-30T19:50:31.489Z,11.9
2023-03-30T19:51:44.711Z,11.9
2023-03-30T19:52:57.795Z,11.9
2023-03-30T19:54:10.719Z,11.9
2023-03-30T19:55:23.786Z,11.9
2023-03-30T19:56:36.890Z,11.9
2023-03-30T19:57:49.680Z,11.9
2023-03-30T19:59:02.721Z,11.9
2023-03-30T20:00:15.948Z,11.9
2023-03-30T20:01:28.740Z,11.9
2023-03-30T20:02:41.583Z,11.9
2023-03-30T20:03:54.755Z,11.9
2023-03-30T20:05:07.685Z,11.9
2023-03-30T20:06:20.735Z,11.9
2023-03-30T20:07:33.810Z,11.9
2023-03-30T20:08:47.330Z,11.9
2023-03-30T20:09:59.776Z,11.9
2023-03-30T20:12:26.265Z,11.9
2023-03-30T20:13:38.745Z,11.9
2023-03-30T20:14:51.466Z,11.9
2023-03-30T20:16:04.815Z,11.9
2023-03-30T20:17:17.684Z,11.9
2023-03-30T20:18:30.714Z,11.7
2023-03-30T20:19:43.709Z,11.7
2023-03-30T20:20:56.663Z,11.7
2023-03-30T20:22:09.430Z,11.7
2023-03-30T20:23:22.666Z,11.7
2023-03-30T20:24:35.752Z,11.7
2023-03-30T20:25:48.667Z,11.7
2023-03-30T20:27:01.653Z,11.7
2023-03-30T20:28:14.696Z,11.6
2023-03-30T20:29:28.127Z,11.6
2023-03-30T20:30:40.674Z,11.6
2023-03-30T20:31:53.686Z,11.6
2023-03-30T20:33:08.267Z,11.5
2023-03-30T20:34:20.753Z,11.5
2023-03-30T20:35:33.004Z,11.4
2023-03-30T20:36:45.780Z,11.3
2023-03-30T20:37:58.650Z,11.3
2023-03-30T20:40:24.827Z,11.3
2023-03-30T20:41:37.516Z,11.3
2023-03-30T20:42:50.680Z,11.4
2023-03-30T20:44:03.665Z,11.5
2023-03-30T20:45:16.827Z,11.4
2023-03-30T20:46:29.365Z,11.3
2023-03-30T20:47:42.692Z,11.3
2023-03-30T20:48:55.677Z,11.3
2023-03-30T20:50:08.774Z,11.3
2023-03-30T20:51:21.635Z,11.3
2023-03-30T20:52:34.658Z,11.3
2023-03-30T20:53:47.737Z,11.3
2023-03-30T20:55:00.650Z,11.3
2023-03-30T20:56:13.808Z,11.3
2023-03-30T20:57:26.708Z,11.3
2023-03-30T20:58:39.605Z,11.3
2023-03-30T20:59:52.885Z,11.2
2023-03-30T21:01:05.855Z,11.2
2023-03-30T21:02:18.687Z,11.2
2023-03-30T21:03:31.545Z,11.2
2023-03-30T21:04:44.934Z,11.2
2023-03-30T21:05:57.664Z,11.2
2023-03-30T21:07:10.672Z,11.2
2023-03-30T21:08:23.803Z,11.2
2023-03-30T21:09:36.670Z,11.2
2023-03-30T21:10:49.683Z,11.2
2023-03-30T21:12:02.685Z,11.2
2023-03-30T21:13:15.665Z,11.2
2023-03-30T21:14:28.673Z,11.2
2023-03-30T21:15:41.675Z,11.2
2023-03-30T21:16:54.668Z,11.1
2023-03-30T21:18:07.774Z,11.1
2023-03-30T21:19:20.672Z,11.1
2023-03-30T21:20:33.708Z,11.1
2023-03-30T21:21:46.728Z,11.1
2023-03-30T21:22:59.740Z,11.1
2023-03-30T21:24:12.675Z,11.1
2023-03-30T21:25:25.675Z,11.1
2023-03-30T21:26:38.724Z,11.1
2023-03-30T21:27:51.686Z,11.1
2023-03-30T21:29:04.661Z,11.1
2023-03-30T21:30:17.671Z,11.1
2023-03-30T21:31:30.821Z,11.1
2023-03-30T21:32:43.533Z,11.1
2023-03-30T21:33:56.697Z,11.1
2023-03-30T21:35:09.664Z,11.1
2023-03-30T21:36:22.728Z,11.1
2023-03-30T21:37:35.648Z,11.1
2023-03-30T21:38:48.642Z,11.1
2023-03-30T21:40:01.830Z,11.1
2023-03-30T21:41:14.756Z,11.1
2023-03-30T21:42:27.646Z,11.1
2023-03-30T21:43:40.671Z,11.1
2023-03-30T21:44:53.862Z,11.1
2023-03-30T21:46:06.777Z,11.1
2023-03-30T21:47:19.833Z,11.1
2023-03-30T21:48:32.719Z,11.1
2023-03-30T21:49:45.658Z,11.1
2023-03-30T21:50:58.612Z,11.1
2023-03-30T21:52:11.663Z,11.1
2023-03-30T21:53:24.644Z,11.1
2023-03-30T21:54:37.682Z,11.2
2023-03-30T21:55:50.703Z,11.2
2023-03-30T21:57:03.851Z,11.2
2023-03-30T21:58:16.854Z,11.2
2023-03-30T21:59:29.670Z,11.2
2023-03-30T22:00:42.699Z,11.2
2023-03-30T22:01:55.544Z,11.2
2023-03-30T22:03:08.761Z,11.2
2023-03-30T22:04:21.675Z,11.2
2023-03-30T22:05:34.654Z,11.2
2023-03-30T22:06:47.657Z,11.2
2023-03-30T22:08:00.545Z,11.2
2023-03-30T22:09:13.671Z,11.2
2023-03-30T22:10:26.693Z,11.2
2023-03-30T22:11:39.622Z,11.2
2023-03-30T22:12:52.644Z,11.2
2023-03-30T22:21:23.656Z,10.9
2023-03-30T22:27:28.702Z,11
2023-03-30T22:28:42.117Z,11
2023-03-30T22:29:54.415Z,11
2023-03-30T22:32:20.677Z,11
2023-03-30T22:33:33.460Z,11
2023-03-30T22:34:46.560Z,11
2023-03-30T22:35:59.396Z,11
2023-03-30T22:37:12.486Z,11
2023-03-30T22:38:25.519Z,11
2023-03-30T22:45:44.086Z,10.8
2023-03-30T22:46:56.562Z,10.8
2023-03-30T22:49:22.826Z,10.8
2023-03-30T22:53:01.747Z,10.8
2023-03-30T22:54:14.988Z,10.8
2023-03-30T22:55:27.483Z,10.8
2023-03-30T23:11:16.807Z,10.8
2023-03-30T23:17:21.575Z,10.7
2023-03-30T23:18:34.492Z,10.6
2023-03-30T23:21:00.394Z,10.6
2023-03-30T23:23:26.746Z,10.5
2023-03-30T23:30:44.715Z,10.2
2023-03-30T23:31:57.409Z,10.2
2023-03-30T23:33:10.564Z,10.2
2023-03-30T23:34:24.046Z,10.3
2023-03-30T23:36:49.352Z,10.2
2023-03-30T23:40:28.403Z,10.2
2023-03-30T23:41:41.672Z,10
2023-03-30T23:45:20.771Z,10
2023-03-30T23:58:43.484Z,9.9
